createdAt,value
2024-03-25T00:01:06.819Z,3.5
2024-03-25T00:01:59.263Z,3.6
2024-03-25T00:02:59.266Z,3.6
2024-03-25T00:03:59.262Z,3.6
2024-03-25T00:04:59.289Z,3.6
2024-03-25T00:05:59.260Z,3.6
2024-03-25T00:06:59.276Z,3.5
2024-03-25T00:07:59.263Z,3.6
2024-03-25T00:08:59.269Z,3.5
2024-03-25T00:09:59.264Z,3.5
2024-03-25T00:10:59.260Z,3.5
2024-03-25T00:11:59.260Z,3.5
2024-03-25T00:12:59.263Z,3.5
2024-03-25T00:13:59.272Z,3.4
2024-03-25T00:14:59.266Z,3.4
2024-03-25T00:15:59.262Z,3.4
2024-03-25T00:16:59.271Z,3.4
2024-03-25T00:17:59.269Z,3.4
2024-03-25T00:18:59.259Z,3.4
2024-03-25T00:19:59.272Z,3.4
2024-03-25T00:20:59.260Z,3.4
2024-03-25T00:21:59.263Z,3.3
2024-03-25T00:22:59.269Z,3.3
2024-03-25T00:23:59.257Z,3.3
2024-03-25T00:24:59.298Z,3.3
2024-03-25T00:26:06.915Z,3.2
2024-03-25T00:26:59.263Z,3.2
2024-03-25T00:27:59.262Z,3.2
2024-03-25T00:29:08.756Z,3.2
2024-03-25T00:29:59.306Z,3.2
2024-03-25T00:30:59.259Z,3.2
2024-03-25T00:31:59.257Z,3.2
2024-03-25T00:32:59.260Z,3.1
2024-03-25T00:33:59.262Z,3.1
2024-03-25T00:34:59.284Z,3.1
2024-03-25T00:36:01.127Z,3.1
2024-03-25T00:36:59.270Z,3.1
2024-03-25T00:37:59.265Z,3.1
2024-03-25T00:39:03.031Z,3.1
2024-03-25T00:39:59.267Z,3.1
2024-03-25T00:40:59.285Z,3.1
2024-03-25T00:42:04.235Z,3.1
2024-03-25T00:42:59.277Z,3.1
2024-03-25T00:43:59.284Z,3
2024-03-25T00:44:59.353Z,3
2024-03-25T00:45:59.272Z,3
2024-03-25T00:46:59.261Z,3
2024-03-25T00:47:59.262Z,3
2024-03-25T00:48:59.259Z,2.9
2024-03-25T00:49:59.270Z,2.9
2024-03-25T00:50:59.262Z,2.9
2024-03-25T00:52:59.268Z,2.9
2024-03-25T00:53:59.259Z,2.9
2024-03-25T00:54:59.259Z,2.9
2024-03-25T00:55:59.260Z,2.9
2024-03-25T00:56:59.258Z,2.9
2024-03-25T00:57:59.258Z,2.9
2024-03-25T00:58:59.262Z,2.9
2024-03-25T00:59:59.275Z,2.9
2024-03-25T01:00:59.261Z,2.9
2024-03-25T01:01:59.263Z,2.9
2024-03-25T01:02:59.260Z,3
2024-03-25T01:03:59.263Z,3
2024-03-25T01:04:59.264Z,3
2024-03-25T01:05:59.265Z,3
2024-03-25T01:06:59.261Z,3
2024-03-25T01:07:59.260Z,3.1
2024-03-25T01:08:59.266Z,3.1
2024-03-25T01:09:59.265Z,3.1
2024-03-25T01:10:59.262Z,3.1
2024-03-25T01:11:59.262Z,3.1
2024-03-25T01:12:59.264Z,3.1
2024-03-25T01:13:59.281Z,3.1
2024-03-25T01:14:59.259Z,3
2024-03-25T01:15:59.259Z,3
2024-03-25T01:16:59.267Z,3
2024-03-25T01:17:59.276Z,3
2024-03-25T01:18:59.265Z,3
2024-03-25T01:19:59.265Z,2.9
2024-03-25T01:20:59.570Z,2.9
2024-03-25T01:21:59.268Z,2.9
2024-03-25T01:22:59.284Z,2.9
2024-03-25T01:23:59.259Z,2.9
2024-03-25T01:24:59.290Z,2.9
2024-03-25T01:25:59.255Z,2.8
2024-03-25T01:26:59.294Z,2.8
2024-03-25T01:27:59.269Z,2.8
2024-03-25T01:28:59.293Z,2.7
2024-03-25T01:29:59.275Z,2.7
2024-03-25T01:30:59.261Z,2.6
2024-03-25T01:31:59.289Z,2.6
2024-03-25T01:32:59.261Z,2.6
2024-03-25T01:33:59.261Z,2.6
2024-03-25T01:34:59.374Z,2.6
2024-03-25T01:35:59.293Z,2.5
2024-03-25T01:36:59.263Z,2.5
2024-03-25T01:37:59.267Z,2.4
2024-03-25T01:38:59.268Z,2.4
2024-03-25T01:39:59.601Z,2.4
2024-03-25T01:40:59.286Z,2.4
2024-03-25T01:41:59.266Z,2.3
2024-03-25T01:42:59.266Z,2.2
2024-03-25T01:44:07.274Z,2.2
2024-03-25T01:44:59.264Z,2.2
2024-03-25T01:45:59.260Z,2.1
2024-03-25T01:46:59.268Z,2.1
2024-03-25T01:47:59.281Z,2
2024-03-25T01:48:59.271Z,2
2024-03-25T01:49:59.307Z,2
2024-03-25T01:50:59.270Z,1.9
2024-03-25T01:51:59.267Z,1.9
2024-03-25T01:52:59.308Z,1.9
2024-03-25T01:53:59.263Z,1.8
2024-03-25T01:54:59.270Z,1.8
2024-03-25T01:55:59.281Z,1.8
2024-03-25T01:56:59.293Z,1.8
2024-03-25T01:57:59.261Z,1.8
2024-03-25T01:58:59.315Z,1.8
2024-03-25T01:59:59.268Z,1.8
2024-03-25T02:00:59.272Z,1.8
2024-03-25T02:01:59.288Z,1.8
2024-03-25T02:02:59.288Z,1.8
2024-03-25T02:03:59.266Z,1.7
2024-03-25T02:05:06.069Z,1.8
2024-03-25T02:05:59.266Z,1.7
2024-03-25T02:06:59.267Z,1.7
2024-03-25T02:07:59.300Z,1.7
2024-03-25T02:08:59.264Z,1.7
2024-03-25T02:09:59.269Z,1.6
2024-03-25T02:10:59.267Z,1.6
2024-03-25T02:12:08.893Z,1.6
2024-03-25T02:12:59.288Z,1.6
2024-03-25T02:13:59.298Z,1.6
2024-03-25T02:14:59.270Z,1.6
2024-03-25T02:15:59.268Z,1.6
2024-03-25T02:16:59.301Z,1.6
2024-03-25T02:17:59.261Z,1.7
2024-03-25T02:18:59.269Z,1.7
2024-03-25T02:19:59.297Z,1.7
2024-03-25T02:20:59.288Z,1.6
2024-03-25T02:21:59.276Z,1.7
2024-03-25T02:22:59.315Z,1.7
2024-03-25T02:23:59.268Z,1.7
2024-03-25T02:24:59.277Z,1.7
2024-03-25T02:25:59.359Z,1.7
2024-03-25T02:27:03.643Z,1.7
2024-03-25T02:27:59.268Z,1.6
2024-03-25T02:28:59.285Z,1.6
2024-03-25T02:30:04.588Z,1.6
2024-03-25T02:30:59.285Z,1.6
2024-03-25T02:31:59.301Z,1.6
2024-03-25T02:32:59.279Z,1.6
2024-03-25T02:33:59.268Z,1.6
2024-03-25T02:34:59.318Z,1.6
2024-03-25T02:35:59.268Z,1.6
2024-03-25T02:36:59.267Z,1.6
2024-03-25T02:37:59.288Z,1.6
2024-03-25T02:38:59.272Z,1.5
2024-03-25T02:39:59.289Z,1.4
2024-03-25T02:40:59.310Z,1.4
2024-03-25T02:41:59.279Z,1.4
2024-03-25T02:42:59.273Z,1.3
2024-03-25T02:43:59.302Z,1.2
2024-03-25T02:44:59.284Z,1.2
2024-03-25T02:45:59.271Z,1.2
2024-03-25T02:46:59.332Z,1.1
2024-03-25T02:47:59.287Z,1.1
2024-03-25T02:48:59.276Z,1.1
2024-03-25T02:49:59.334Z,1.1
2024-03-25T02:50:59.298Z,1.1
2024-03-25T02:51:59.270Z,1.1
2024-03-25T02:52:59.304Z,1.1
2024-03-25T02:53:59.278Z,1.1
2024-03-25T02:54:59.275Z,1.1
2024-03-25T02:55:59.303Z,1.1
2024-03-25T02:56:59.267Z,1.1
2024-03-25T02:57:59.274Z,1.1
2024-03-25T02:58:59.297Z,1.1
2024-03-25T03:00:00.406Z,1.1
2024-03-25T03:00:59.108Z,1
2024-03-25T03:01:59.291Z,0.9
2024-03-25T03:02:59.271Z,0.9
2024-03-25T03:03:59.264Z,0.9
2024-03-25T03:04:59.279Z,0.8
2024-03-25T03:05:59.305Z,0.8
2024-03-25T03:06:59.267Z,0.8
2024-03-25T03:07:59.275Z,0.8
2024-03-25T03:08:59.334Z,0.8
2024-03-25T03:09:59.319Z,0.8
2024-03-25T03:10:59.332Z,0.8
2024-03-25T03:11:59.320Z,0.8
2024-03-25T03:12:59.270Z,0.8
2024-03-25T03:13:59.298Z,0.9
2024-03-25T03:14:59.268Z,0.9
2024-03-25T03:15:59.292Z,0.9
2024-03-25T03:16:59.267Z,0.9
2024-03-25T03:17:59.269Z,0.9
2024-03-25T03:18:59.276Z,1
2024-03-25T03:19:59.287Z,1
2024-03-25T03:20:59.272Z,1
2024-03-25T03:21:59.273Z,1.1
2024-03-25T03:22:59.279Z,1.1
2024-03-25T03:23:59.277Z,1.1
2024-03-25T03:24:59.272Z,1.1
2024-03-25T03:25:59.291Z,1.1
2024-03-25T03:26:59.280Z,1.1
2024-03-25T03:27:59.267Z,1.1
2024-03-25T03:28:59.398Z,1
2024-03-25T03:29:59.287Z,1.1
2024-03-25T03:30:59.277Z,1.1
2024-03-25T03:31:59.296Z,1.1
2024-03-25T03:32:59.283Z,1.1
2024-03-25T03:33:59.269Z,1.2
2024-03-25T03:34:59.329Z,1.2
2024-03-25T03:35:59.276Z,1.2
2024-03-25T03:36:59.274Z,1.3
2024-03-25T03:37:59.287Z,1.4
2024-03-25T03:38:59.274Z,1.4
2024-03-25T03:39:59.297Z,1.4
2024-03-25T03:40:59.547Z,1.4
2024-03-25T03:41:59.284Z,1.5
2024-03-25T03:42:59.284Z,1.5
2024-03-25T03:43:59.331Z,1.5
2024-03-25T03:44:59.280Z,1.6
2024-03-25T03:45:59.276Z,1.6
2024-03-25T03:46:59.277Z,1.7
2024-03-25T03:47:59.276Z,1.7
2024-03-25T03:48:59.281Z,1.8
2024-03-25T03:49:59.352Z,1.8
2024-03-25T03:50:59.275Z,1.8
2024-03-25T03:51:59.269Z,1.9
2024-03-25T03:52:59.294Z,1.9
2024-03-25T03:53:59.274Z,1.9
2024-03-25T03:54:59.281Z,1.9
2024-03-25T03:55:59.284Z,1.9
2024-03-25T03:56:59.269Z,1.9
2024-03-25T03:57:59.269Z,1.9
2024-03-25T03:58:59.290Z,2
2024-03-25T03:59:59.287Z,2
2024-03-25T04:00:59.266Z,2.1
2024-03-25T04:01:59.293Z,2.1
2024-03-25T04:02:59.274Z,2.1
2024-03-25T04:03:59.278Z,2.2
2024-03-25T04:04:59.282Z,2.2
2024-03-25T04:05:59.272Z,2.2
2024-03-25T04:06:59.278Z,2.2
2024-03-25T04:07:59.282Z,2.3
2024-03-25T04:08:59.274Z,2.3
2024-03-25T04:09:59.284Z,2.3
2024-03-25T04:10:59.272Z,2.4
2024-03-25T04:11:59.268Z,2.4
2024-03-25T04:12:59.267Z,2.4
2024-03-25T04:13:59.295Z,2.5
2024-03-25T04:14:59.272Z,2.5
2024-03-25T04:15:59.272Z,2.6
2024-03-25T04:16:59.277Z,2.6
2024-03-25T04:17:59.288Z,2.6
2024-03-25T04:18:59.280Z,2.6
2024-03-25T04:19:59.284Z,2.6
2024-03-25T04:20:59.294Z,2.7
2024-03-25T04:21:59.269Z,2.7
2024-03-25T04:22:59.294Z,2.7
2024-03-25T04:23:59.263Z,2.8
2024-03-25T04:24:59.267Z,2.8
2024-03-25T04:25:59.302Z,2.8
2024-03-25T04:26:59.294Z,2.8
2024-03-25T04:27:59.285Z,2.8
2024-03-25T04:28:59.316Z,2.9
2024-03-25T04:29:59.277Z,2.9
2024-03-25T04:30:59.268Z,2.9
2024-03-25T04:31:59.277Z,2.9
2024-03-25T04:32:59.274Z,2.9
2024-03-25T04:33:59.274Z,2.9
2024-03-25T04:34:59.298Z,3
2024-03-25T04:35:59.286Z,3
2024-03-25T04:36:59.282Z,3
2024-03-25T04:37:59.286Z,3
2024-03-25T04:38:59.294Z,3
2024-03-25T04:39:59.297Z,3
2024-03-25T04:40:59.293Z,3
2024-03-25T04:41:59.266Z,3.1
2024-03-25T04:42:59.312Z,3
2024-03-25T04:43:59.278Z,3.1
2024-03-25T04:44:59.272Z,3.1
2024-03-25T04:45:59.267Z,3.1
2024-03-25T04:46:59.281Z,3.1
2024-03-25T04:47:59.331Z,3.1
2024-03-25T04:48:59.271Z,3.1
2024-03-25T04:49:59.285Z,3.1
2024-03-25T04:50:59.267Z,3.1
2024-03-25T04:51:59.268Z,3.1
2024-03-25T04:52:59.282Z,3.1
2024-03-25T04:53:59.268Z,3.2
2024-03-25T04:54:59.274Z,3.2
2024-03-25T04:55:59.264Z,3.2
2024-03-25T04:56:59.287Z,3.2
2024-03-25T04:57:59.271Z,3.2
2024-03-25T04:59:02.324Z,3.2
2024-03-25T04:59:59.276Z,3.2
2024-03-25T05:00:59.273Z,3.2
2024-03-25T05:01:59.296Z,3.2
2024-03-25T05:02:59.268Z,3.2
2024-03-25T05:03:59.973Z,3.2
2024-03-25T05:04:59.286Z,3.2
2024-03-25T05:05:59.270Z,3.2
2024-03-25T05:06:59.273Z,3.2
2024-03-25T05:07:59.275Z,3.2
2024-03-25T05:08:59.272Z,3.2
2024-03-25T05:09:59.282Z,3.2
2024-03-25T05:10:59.300Z,3.2
2024-03-25T05:11:59.266Z,3.2
2024-03-25T05:12:59.290Z,3.2
2024-03-25T05:13:59.273Z,3.2
2024-03-25T05:14:59.309Z,3.2
2024-03-25T05:15:59.267Z,3.3
2024-03-25T05:16:59.283Z,3.3
2024-03-25T05:17:59.264Z,3.2
2024-03-25T05:18:59.274Z,3.2
2024-03-25T05:19:59.325Z,3.2
2024-03-25T05:20:59.269Z,3.2
2024-03-25T05:21:59.268Z,3.2
2024-03-25T05:22:59.293Z,3.2
2024-03-25T05:23:59.278Z,3.1
2024-03-25T05:24:59.281Z,3.1
2024-03-25T05:25:59.268Z,3.1
2024-03-25T05:26:59.277Z,3.1
2024-03-25T05:27:59.274Z,3.1
2024-03-25T05:28:59.274Z,3.1
2024-03-25T05:29:59.278Z,3.2
2024-03-25T05:30:59.276Z,3.2
2024-03-25T05:31:59.329Z,3.2
2024-03-25T05:32:59.274Z,3.2
2024-03-25T05:33:59.277Z,3.2
2024-03-25T05:34:59.297Z,3.2
2024-03-25T05:36:05.403Z,3.2
2024-03-25T05:36:59.352Z,3.2
2024-03-25T05:37:59.278Z,3.2
2024-03-25T05:38:59.272Z,3.2
2024-03-25T05:39:59.273Z,3.2
2024-03-25T05:40:59.284Z,3.2
2024-03-25T05:41:59.276Z,3.2
2024-03-25T05:42:59.277Z,3.3
2024-03-25T05:43:59.266Z,3.2
2024-03-25T05:44:59.273Z,3.2
2024-03-25T05:45:59.261Z,3.2
2024-03-25T05:46:59.267Z,3.3
2024-03-25T05:47:59.271Z,3.3
2024-03-25T05:48:59.268Z,3.3
2024-03-25T05:49:59.307Z,3.3
2024-03-25T05:50:59.264Z,3.3
2024-03-25T05:51:59.297Z,3.4
2024-03-25T05:52:59.283Z,3.4
2024-03-25T05:53:59.282Z,3.4
2024-03-25T05:54:59.267Z,3.4
2024-03-25T05:55:59.268Z,3.5
2024-03-25T05:56:59.269Z,3.5
2024-03-25T05:57:59.262Z,3.4
2024-03-25T05:58:59.291Z,3.4
2024-03-25T05:59:59.286Z,3.2
2024-03-25T06:00:59.285Z,3.2
2024-03-25T06:01:59.316Z,3.2
2024-03-25T06:02:59.279Z,3.2
2024-03-25T06:03:59.266Z,3.3
2024-03-25T06:04:59.282Z,3.3
2024-03-25T06:05:59.265Z,3.4
2024-03-25T06:06:59.273Z,3.4
2024-03-25T06:07:59.266Z,3.4
2024-03-25T06:08:59.261Z,3.5
2024-03-25T06:09:59.270Z,3.6
2024-03-25T06:10:59.265Z,3.6
2024-03-25T06:11:59.282Z,3.6
2024-03-25T06:12:59.289Z,3.7
2024-03-25T06:13:59.280Z,3.7
2024-03-25T06:14:59.296Z,3.8
2024-03-25T06:15:59.273Z,3.8
2024-03-25T06:16:59.294Z,3.8
2024-03-25T06:17:59.283Z,3.9
2024-03-25T06:18:59.270Z,3.9
2024-03-25T06:19:59.286Z,3.9
2024-03-25T06:20:59.319Z,3.9
2024-03-25T06:21:59.302Z,3.9
2024-03-25T06:22:59.278Z,3.9
2024-03-25T06:23:59.272Z,4
2024-03-25T06:24:59.275Z,4
2024-03-25T06:25:59.274Z,4
2024-03-25T06:26:59.283Z,4.1
2024-03-25T06:27:59.276Z,4.1
2024-03-25T06:28:59.292Z,4.1
2024-03-25T06:29:59.283Z,4.1
2024-03-25T06:30:59.297Z,4.1
2024-03-25T06:31:59.265Z,4.1
2024-03-25T06:32:59.306Z,4.1
2024-03-25T06:33:59.275Z,4.1
2024-03-25T06:34:59.320Z,4.1
2024-03-25T06:35:59.270Z,4.2
2024-03-25T06:36:59.266Z,4.2
2024-03-25T06:37:59.287Z,4.2
2024-03-25T06:38:59.309Z,4.2
2024-03-25T06:39:59.288Z,4.2
2024-03-25T06:40:59.266Z,4.3
2024-03-25T06:42:09.694Z,4.3
2024-03-25T06:42:59.274Z,4.3
2024-03-25T06:43:59.310Z,4.2
2024-03-25T06:44:59.285Z,4.2
2024-03-25T06:45:59.293Z,4.2
2024-03-25T06:46:59.275Z,4.2
2024-03-25T06:47:59.278Z,4.2
2024-03-25T06:48:59.277Z,4.3
2024-03-25T06:49:59.286Z,4.3
2024-03-25T06:50:59.279Z,4.3
2024-03-25T06:51:59.276Z,4.3
2024-03-25T06:52:59.269Z,4.4
2024-03-25T06:53:59.299Z,4.4
2024-03-25T06:54:59.274Z,4.4
2024-03-25T06:55:59.444Z,4.4
2024-03-25T06:56:59.273Z,4.4
2024-03-25T06:57:59.273Z,4.2
2024-03-25T06:58:59.314Z,4.2
2024-03-25T07:00:00.553Z,4.1
2024-03-25T07:00:59.267Z,4.1
2024-03-25T07:01:59.276Z,4.1
2024-03-25T07:02:59.324Z,4.1
2024-03-25T07:03:59.274Z,4
2024-03-25T07:04:59.301Z,3.9
2024-03-25T07:05:59.264Z,3.9
2024-03-25T07:06:59.271Z,3.8
2024-03-25T07:07:59.267Z,3.7
2024-03-25T07:08:59.273Z,3.6
2024-03-25T07:09:59.284Z,3.6
2024-03-25T07:10:59.276Z,3.5
2024-03-25T07:11:59.286Z,3.6
2024-03-25T07:12:59.268Z,3.7
2024-03-25T07:14:01.585Z,3.8
2024-03-25T07:14:59.281Z,3.9
2024-03-25T07:15:59.267Z,4
2024-03-25T07:16:59.267Z,4.1
2024-03-25T07:17:59.301Z,4.1
2024-03-25T07:18:59.261Z,4.2
2024-03-25T07:19:59.298Z,4.3
2024-03-25T07:20:59.274Z,4.3
2024-03-25T07:21:59.263Z,4.4
2024-03-25T07:22:59.285Z,4.4
2024-03-25T07:23:59.289Z,4.4
2024-03-25T07:24:59.269Z,4.4
2024-03-25T07:25:59.269Z,4.4
2024-03-25T07:26:59.274Z,4.4
2024-03-25T07:27:59.262Z,4.5
2024-03-25T07:28:59.277Z,4.4
2024-03-25T07:29:59.289Z,4.5
2024-03-25T07:30:59.270Z,4.5
2024-03-25T07:31:59.277Z,4.6
2024-03-25T07:32:59.266Z,4.6
2024-03-25T07:33:59.295Z,4.7
2024-03-25T07:34:59.290Z,4.8
2024-03-25T07:35:59.266Z,4.9
2024-03-25T07:36:59.326Z,5
2024-03-25T07:37:59.283Z,5
2024-03-25T07:38:59.289Z,5.1
2024-03-25T07:39:59.320Z,5.1
2024-03-25T07:40:59.289Z,5.1
2024-03-25T07:41:59.274Z,5.1
2024-03-25T07:42:59.278Z,5.1
2024-03-25T07:43:59.292Z,5
2024-03-25T07:44:59.276Z,4.9
2024-03-25T07:45:59.263Z,4.9
2024-03-25T07:46:59.264Z,4.8
2024-03-25T07:47:59.267Z,4.8
2024-03-25T07:48:59.265Z,4.7
2024-03-25T07:49:59.276Z,4.6
2024-03-25T07:50:59.266Z,4.6
2024-03-25T07:51:59.263Z,4.6
2024-03-25T07:52:59.269Z,4.6
2024-03-25T07:53:59.258Z,4.5
2024-03-25T07:54:59.268Z,4.6
2024-03-25T07:55:59.260Z,4.6
2024-03-25T07:56:59.249Z,4.7
2024-03-25T07:57:59.287Z,4.8
2024-03-25T07:58:59.263Z,4.8
2024-03-25T07:59:59.300Z,4.8
2024-03-25T08:00:59.278Z,4.9
2024-03-25T08:01:59.336Z,4.9
2024-03-25T08:02:59.345Z,5
2024-03-25T08:03:59.274Z,5
2024-03-25T08:04:59.311Z,5
2024-03-25T08:05:59.261Z,5.1
2024-03-25T08:06:59.271Z,5.1
2024-03-25T08:07:59.280Z,5.1
2024-03-25T08:08:59.265Z,5.2
2024-03-25T08:09:59.310Z,5.2
2024-03-25T08:10:59.328Z,5.3
2024-03-25T08:11:59.272Z,5.2
2024-03-25T08:12:59.296Z,5.2
2024-03-25T08:13:59.275Z,5.3
2024-03-25T08:14:59.299Z,5.4
2024-03-25T08:15:59.270Z,5.4
2024-03-25T08:16:59.314Z,5.4
2024-03-25T08:17:59.291Z,5.5
2024-03-25T08:18:59.265Z,5.6
2024-03-25T08:19:59.263Z,5.7
2024-03-25T08:20:59.457Z,5.8
2024-03-25T08:21:59.273Z,5.8
2024-03-25T08:22:59.289Z,5.9
2024-03-25T08:24:04.876Z,5.9
2024-03-25T08:24:59.266Z,6.1
2024-03-25T08:25:59.283Z,6.1
2024-03-25T08:26:59.260Z,6
2024-03-25T08:27:59.275Z,6.1
2024-03-25T08:28:59.320Z,6.1
2024-03-25T08:29:59.269Z,6.2
2024-03-25T08:30:59.271Z,6.2
2024-03-25T08:31:59.270Z,6.1
2024-03-25T08:32:59.319Z,6.2
2024-03-25T08:33:59.261Z,6.3
2024-03-25T08:34:59.301Z,6.4
2024-03-25T08:35:59.284Z,6.4
2024-03-25T08:36:59.265Z,6.4
2024-03-25T08:37:59.260Z,6.6
2024-03-25T08:38:59.269Z,6.6
2024-03-25T08:39:59.347Z,6.6
2024-03-25T08:40:59.331Z,6.6
2024-03-25T08:41:59.271Z,6.7
2024-03-25T08:42:59.580Z,6.7
2024-03-25T08:43:59.327Z,6.8
2024-03-25T08:44:59.268Z,6.9
2024-03-25T08:45:59.263Z,7
2024-03-25T08:46:59.280Z,7
2024-03-25T08:47:59.325Z,7.1
2024-03-25T08:49:03.567Z,7.1
2024-03-25T08:49:59.270Z,7.2
2024-03-25T08:50:59.268Z,7.2
2024-03-25T08:52:04.983Z,7.2
2024-03-25T08:52:59.274Z,7.3
2024-03-25T08:53:59.957Z,7.4
2024-03-25T08:55:05.786Z,7.4
2024-03-25T08:55:59.271Z,7.2
2024-03-25T08:56:59.273Z,7.1
2024-03-25T08:57:59.365Z,7.1
2024-03-25T08:58:59.283Z,7.1
2024-03-25T08:59:59.277Z,7.1
2024-03-25T09:00:59.268Z,7
2024-03-25T09:01:59.273Z,7
2024-03-25T09:02:59.278Z,7
2024-03-25T09:03:59.259Z,7.1
2024-03-25T09:04:59.289Z,7.1
2024-03-25T09:05:59.306Z,7.2
2024-03-25T09:06:59.334Z,7.2
2024-03-25T09:07:59.316Z,7.3
2024-03-25T09:08:59.273Z,7.4
2024-03-25T09:09:59.281Z,7.4
2024-03-25T09:10:59.294Z,7.4
2024-03-25T09:11:59.317Z,7.6
2024-03-25T09:12:59.258Z,7.7
2024-03-25T09:13:59.260Z,7.8
2024-03-25T09:14:59.261Z,7.8
2024-03-25T09:15:59.286Z,7.9
2024-03-25T09:16:59.262Z,8
2024-03-25T09:17:59.338Z,8.1
2024-03-25T09:18:59.266Z,8
2024-03-25T09:19:59.285Z,7.9
2024-03-25T09:20:59.314Z,7.9
2024-03-25T09:21:59.260Z,7.9
2024-03-25T09:22:59.323Z,8
2024-03-25T09:23:59.309Z,8.1
2024-03-25T09:24:59.265Z,8.2
2024-03-25T09:25:59.263Z,8.1
2024-03-25T09:26:59.265Z,8
2024-03-25T09:27:59.304Z,8.1
2024-03-25T09:28:59.279Z,8.1
2024-03-25T09:29:59.274Z,8.1
2024-03-25T09:30:59.275Z,7.9
2024-03-25T09:31:59.269Z,7.8
2024-03-25T09:32:59.266Z,7.7
2024-03-25T09:33:59.270Z,7.6
2024-03-25T09:35:00.113Z,7.5
2024-03-25T09:35:59.268Z,7.4
2024-03-25T09:36:59.268Z,7.2
2024-03-25T09:37:59.397Z,7.1
2024-03-25T09:38:59.311Z,7.1
2024-03-25T09:39:59.328Z,7.1
2024-03-25T09:40:59.296Z,7.1
2024-03-25T09:41:59.293Z,7.1
2024-03-25T09:42:59.274Z,7.1
2024-03-25T09:43:59.290Z,7.1
2024-03-25T09:44:59.340Z,7.2
2024-03-25T09:45:59.279Z,7.2
2024-03-25T09:46:59.277Z,7.3
2024-03-25T09:47:59.301Z,7.4
2024-03-25T09:48:59.283Z,7.4
2024-03-25T09:49:59.299Z,7.4
2024-03-25T09:51:00.815Z,7.4
2024-03-25T09:51:59.277Z,7.4
2024-03-25T09:52:59.296Z,7.4
2024-03-25T09:53:59.265Z,7.4
2024-03-25T09:54:59.269Z,7.6
2024-03-25T09:55:59.275Z,7.8
2024-03-25T09:56:59.273Z,7.8
2024-03-25T09:57:59.327Z,7.9
2024-03-25T09:58:59.270Z,8.1
2024-03-25T09:59:59.391Z,8.2
2024-03-25T10:00:59.360Z,8.3
2024-03-25T10:01:59.281Z,8.4
2024-03-25T10:02:59.266Z,8.5
2024-03-25T10:03:59.292Z,8.6
2024-03-25T10:04:59.284Z,8.6
2024-03-25T10:05:59.269Z,8.7
2024-03-25T10:06:59.293Z,8.8
2024-03-25T10:07:59.264Z,8.8
2024-03-25T10:08:59.302Z,8.9
2024-03-25T10:09:59.279Z,8.9
2024-03-25T10:10:59.280Z,9.1
2024-03-25T10:12:59.262Z,9.3
2024-03-25T10:13:59.282Z,9.4
2024-03-25T10:14:59.328Z,9.5
2024-03-25T10:15:59.270Z,9.6
2024-03-25T10:16:59.266Z,9.8
2024-03-25T10:17:59.303Z,9.9
2024-03-25T10:18:59.463Z,9.9
2024-03-25T10:19:59.297Z,10
2024-03-25T10:20:59.274Z,10
2024-03-25T10:22:05.066Z,10
2024-03-25T10:22:59.263Z,9.9
2024-03-25T10:23:59.270Z,10
2024-03-25T10:24:59.325Z,10
2024-03-25T10:25:59.299Z,10
2024-03-25T10:26:59.267Z,10
2024-03-25T10:27:59.285Z,10
2024-03-25T10:28:59.261Z,9.9
2024-03-25T10:30:00.019Z,10
2024-03-25T10:30:59.275Z,10
2024-03-25T10:31:59.477Z,10
2024-03-25T10:32:59.348Z,10.1
2024-03-25T10:33:59.262Z,10.1
2024-03-25T10:34:59.261Z,10.1
2024-03-25T10:35:59.817Z,10
2024-03-25T10:36:59.343Z,9.9
2024-03-25T10:37:59.264Z,9.9
2024-03-25T10:38:59.355Z,9.9
2024-03-25T10:39:59.398Z,10.1
2024-03-25T10:40:59.311Z,10.1
2024-03-25T10:41:59.312Z,10.2
2024-03-25T10:43:02.103Z,10.2
2024-03-25T10:43:59.515Z,10.4
2024-03-25T10:44:59.268Z,10.4
2024-03-25T10:45:59.267Z,10.5
2024-03-25T10:46:59.350Z,10.5
2024-03-25T10:47:59.278Z,10.6
2024-03-25T10:48:59.276Z,10.7
2024-03-25T10:50:05.895Z,10.8
2024-03-25T10:50:59.280Z,10.9
2024-03-25T10:51:59.271Z,11.1
2024-03-25T10:52:59.278Z,11.2
2024-03-25T10:53:59.393Z,11.2
2024-03-25T10:54:59.274Z,11.4
2024-03-25T10:55:59.286Z,11.5
2024-03-25T10:56:59.270Z,11.5
2024-03-25T10:57:59.271Z,11.6
2024-03-25T10:58:59.303Z,11.8
2024-03-25T11:00:02.224Z,11.9
2024-03-25T11:00:59.273Z,11.9
2024-03-25T11:01:59.321Z,11.9
2024-03-25T11:02:59.272Z,11.9
2024-03-25T11:03:59.284Z,11.9
2024-03-25T11:04:59.268Z,11.9
2024-03-25T11:05:59.269Z,11.8
2024-03-25T11:06:59.307Z,11.8
2024-03-25T11:07:59.355Z,11.8
2024-03-25T11:08:59.399Z,11.7
2024-03-25T11:09:59.342Z,11.6
2024-03-25T11:10:59.285Z,11.5
2024-03-25T11:11:59.268Z,11.5
2024-03-25T11:12:59.308Z,11.5
2024-03-25T11:13:59.321Z,11.6
2024-03-25T11:14:59.273Z,11.8
2024-03-25T11:15:59.273Z,11.8
2024-03-25T11:16:59.267Z,11.9
2024-03-25T11:17:59.281Z,11.8
2024-03-25T11:18:59.263Z,11.7
2024-03-25T11:19:59.345Z,11.6
2024-03-25T11:20:59.275Z,11.6
2024-03-25T11:21:59.271Z,11.7
2024-03-25T11:22:59.289Z,11.9
2024-03-25T11:23:59.288Z,12
2024-03-25T11:24:59.295Z,12.1
2024-03-25T11:25:59.296Z,12.2
2024-03-25T11:26:59.275Z,12.3
2024-03-25T11:27:59.278Z,12.4
2024-03-25T11:28:59.276Z,12.4
2024-03-25T11:29:59.433Z,12.6
2024-03-25T11:30:59.297Z,12.6
2024-03-25T11:31:59.280Z,12.6
2024-03-25T11:32:59.291Z,12.6
2024-03-25T11:33:59.271Z,12.6
2024-03-25T11:34:59.284Z,12.5
2024-03-25T11:35:59.272Z,12.2
2024-03-25T11:36:59.269Z,12.1
2024-03-25T11:37:59.269Z,12
2024-03-25T11:38:59.275Z,12.1
2024-03-25T11:39:59.273Z,12.2
2024-03-25T11:40:59.272Z,12.3
2024-03-25T11:41:59.290Z,12.4
2024-03-25T11:42:59.271Z,12.5
2024-03-25T11:43:59.270Z,12.6
2024-03-25T11:45:01.219Z,12.7
2024-03-25T11:45:59.286Z,12.7
2024-03-25T11:46:59.282Z,12.8
2024-03-25T11:47:59.267Z,12.8
2024-03-25T11:49:01.145Z,12.9
2024-03-25T11:49:59.275Z,12.9
2024-03-25T11:50:59.273Z,12.9
2024-03-25T11:51:59.313Z,13
2024-03-25T11:52:59.268Z,12.9
2024-03-25T11:53:59.270Z,12.9
2024-03-25T11:54:59.268Z,12.9
2024-03-25T11:55:59.269Z,12.9
2024-03-25T11:56:59.272Z,13
2024-03-25T11:57:59.269Z,13
2024-03-25T11:58:59.267Z,13.1
2024-03-25T11:59:59.284Z,13.1
2024-03-25T12:00:59.265Z,13.1
2024-03-25T12:01:59.306Z,13.2
2024-03-25T12:02:59.276Z,13.2
2024-03-25T12:03:59.289Z,13.1
2024-03-25T12:04:59.275Z,13.1
2024-03-25T12:05:59.271Z,13.1
2024-03-25T12:07:09.119Z,13.2
2024-03-25T12:07:59.272Z,13.2
2024-03-25T12:09:00.032Z,13.3
2024-03-25T12:10:00.905Z,13.3
2024-03-25T12:10:59.270Z,13.4
2024-03-25T12:11:59.267Z,13.6
2024-03-25T12:13:01.030Z,13.6
2024-03-25T12:13:59.848Z,13.7
2024-03-25T12:14:59.270Z,13.7
2024-03-25T12:15:59.273Z,13.6
2024-03-25T12:16:59.270Z,13.6
2024-03-25T12:17:59.290Z,13.7
2024-03-25T12:18:59.378Z,13.7
2024-03-25T12:19:59.282Z,13.8
2024-03-25T12:20:59.272Z,13.8
2024-03-25T12:22:00.593Z,13.8
2024-03-25T12:22:59.271Z,13.8
2024-03-25T12:23:59.271Z,13.8
2024-03-25T12:24:59.271Z,13.8
2024-03-25T12:25:59.291Z,13.9
2024-03-25T12:26:59.282Z,13.9
2024-03-25T12:27:59.734Z,13.9
2024-03-25T12:28:59.297Z,13.9
2024-03-25T12:29:59.289Z,14.1
2024-03-25T12:30:59.268Z,14.1
2024-03-25T12:31:59.290Z,14.1
2024-03-25T12:32:59.263Z,14.2
2024-03-25T12:34:00.404Z,14.2
2024-03-25T12:34:59.265Z,14.2
2024-03-25T12:35:59.294Z,14.3
2024-03-25T12:36:59.274Z,14.3
2024-03-25T12:37:59.267Z,14.3
2024-03-25T12:38:59.317Z,14.4
2024-03-25T12:40:00.284Z,14.4
2024-03-25T12:40:59.270Z,14.4
2024-03-25T12:41:59.287Z,14.4
2024-03-25T12:42:59.293Z,14.4
2024-03-25T12:43:59.282Z,14.4
2024-03-25T12:44:59.271Z,14.4
2024-03-25T12:46:01.783Z,14.4
2024-03-25T12:46:59.266Z,14.4
2024-03-25T12:47:59.272Z,14.4
2024-03-25T12:48:59.281Z,14.4
2024-03-25T12:49:59.265Z,14.4
2024-03-25T12:50:59.271Z,14.4
2024-03-25T12:52:00.335Z,14.5
2024-03-25T12:52:59.269Z,14.5
2024-03-25T12:53:59.269Z,14.6
2024-03-25T12:54:59.267Z,14.6
2024-03-25T12:55:59.282Z,14.6
2024-03-25T12:56:59.279Z,14.6
2024-03-25T12:57:59.265Z,14.5
2024-03-25T12:58:59.288Z,14.5
2024-03-25T12:59:59.267Z,14.5
2024-03-25T13:00:59.288Z,14.5
2024-03-25T13:01:59.273Z,14.5
2024-03-25T13:02:59.280Z,14.4
2024-03-25T13:03:59.263Z,14.5
2024-03-25T13:04:59.271Z,14.5
2024-03-25T13:05:59.281Z,14.5
2024-03-25T13:06:59.265Z,14.5
2024-03-25T13:07:59.275Z,14.5
2024-03-25T13:08:59.265Z,14.4
2024-03-25T13:09:59.268Z,14.4
2024-03-25T13:10:59.294Z,14.4
2024-03-25T13:11:59.263Z,14.4
2024-03-25T13:12:59.276Z,14.4
2024-03-25T13:13:59.264Z,14.3
2024-03-25T13:14:59.264Z,14.3
2024-03-25T13:15:59.268Z,14.4
2024-03-25T13:16:59.262Z,14.4
2024-03-25T13:17:59.260Z,14.4
2024-03-25T13:18:59.260Z,14.5
2024-03-25T13:19:59.277Z,14.5
2024-03-25T13:20:59.268Z,14.5
2024-03-25T13:21:59.264Z,14.6
2024-03-25T13:22:59.267Z,14.6
2024-03-25T13:23:59.296Z,14.6
2024-03-25T13:24:59.265Z,14.6
2024-03-25T13:25:59.264Z,14.6
2024-03-25T13:26:59.255Z,14.6
2024-03-25T13:27:59.260Z,14.6
2024-03-25T13:28:59.263Z,14.7
2024-03-25T13:29:59.275Z,14.8
2024-03-25T13:30:59.262Z,14.8
2024-03-25T13:32:04.858Z,14.8
2024-03-25T13:32:59.510Z,14.8
2024-03-25T13:33:59.278Z,14.8
2024-03-25T13:34:59.274Z,14.8
2024-03-25T13:35:59.268Z,14.8
2024-03-25T13:36:59.310Z,14.8
2024-03-25T13:37:59.304Z,14.8
2024-03-25T13:38:59.276Z,14.8
2024-03-25T13:39:59.272Z,14.8
2024-03-25T13:40:59.273Z,14.8
2024-03-25T13:41:59.296Z,14.8
2024-03-25T13:42:59.294Z,14.8
2024-03-25T13:43:59.272Z,14.8
2024-03-25T13:44:59.338Z,14.8
2024-03-25T13:45:59.267Z,14.8